sensor_id;sensor_type;location;lat;lon;timestamp;pressure;altitude;pressure_sealevel;temperature;humidity
43217;BME280;60511;42.686;23.300;2023-05-24T00:00:04;94529.75;;;23.45;34.54
43217;BME280;60511;42.686;23.300;2023-05-24T00:02:12;94495.63;;;23.17;35.46
43217;BME280;60511;42.686;23.300;2023-05-24T00:04:13;94533.28;;;23.49;35.22
43217;BME280;60511;42.686;23.300;2023-05-24T00:06:14;94536.72;;;23.46;34.66
43217;BME280;60511;42.686;23.300;2023-05-24T00:08:16;94536.72;;;23.46;34.37
43217;BME280;60511;42.686;23.300;2023-05-24T00:10:16;94505.78;;;23.24;34.17
43217;BME280;60511;42.686;23.300;2023-05-24T00:12:17;94492.31;;;23.08;34.20
43217;BME280;60511;42.686;23.300;2023-05-24T00:14:17;94536.63;;;23.42;34.43
43217;BME280;60511;42.686;23.300;2023-05-24T00:16:18;94520.66;;;23.34;34.34
43217;BME280;60511;42.686;23.300;2023-05-24T00:18:18;94533.22;;;23.45;34.51
43217;BME280;60511;42.686;23.300;2023-05-24T00:20:19;94478.75;;;23.04;34.58
43217;BME280;60511;42.686;23.300;2023-05-24T00:22:19;94522.63;;;23.37;34.56
43217;BME280;60511;42.686;23.300;2023-05-24T00:24:20;94531.94;;;23.39;34.34
43217;BME280;60511;42.686;23.300;2023-05-24T00:26:20;94486.59;;;23.10;34.56
43217;BME280;60511;42.686;23.300;2023-05-24T00:28:21;94528.53;;;23.42;34.81
43217;BME280;60511;42.686;23.300;2023-05-24T00:30:21;94526.94;;;23.41;34.55
43217;BME280;60511;42.686;23.300;2023-05-24T00:32:22;94525.75;;;23.39;34.54
43217;BME280;60511;42.686;23.300;2023-05-24T00:34:22;94484.38;;;23.15;34.84
43217;BME280;60511;42.686;23.300;2023-05-24T00:36:24;94472.31;;;23.09;34.62
43217;BME280;60511;42.686;23.300;2023-05-24T00:38:25;94520.66;;;23.34;34.81
43217;BME280;60511;42.686;23.300;2023-05-24T00:40:26;94494.19;;;23.23;34.66
43217;BME280;60511;42.686;23.300;2023-05-24T00:42:26;94521.06;;;23.36;35.32
43217;BME280;60511;42.686;23.300;2023-05-24T00:44:26;94516.38;;;23.33;34.79
43217;BME280;60511;42.686;23.300;2023-05-24T00:46:28;94517.22;;;23.37;34.85
43217;BME280;60511;42.686;23.300;2023-05-24T00:48:29;94464.81;;;23.02;34.96
43217;BME280;60511;42.686;23.300;2023-05-24T00:50:30;94522.97;;;23.35;34.91
43217;BME280;60511;42.686;23.300;2023-05-24T00:52:31;94474.06;;;23.01;34.86
43217;BME280;60511;42.686;23.300;2023-05-24T00:54:31;94423.56;;;22.66;34.76
43217;BME280;60511;42.686;23.300;2023-05-24T00:56:32;94512.72;;;23.25;35.06
43217;BME280;60511;42.686;23.300;2023-05-24T00:58:33;94509.59;;;23.23;35.09
43217;BME280;60511;42.686;23.300;2023-05-24T01:00:33;94526.66;;;23.27;34.81
43217;BME280;60511;42.686;23.300;2023-05-24T01:02:35;94499.34;;;23.13;34.94
43217;BME280;60511;42.686;23.300;2023-05-24T01:04:37;94527.09;;;23.29;34.69
43217;BME280;60511;42.686;23.300;2023-05-24T01:09:19;94528.66;;;23.30;34.73
43217;BME280;60511;42.686;23.300;2023-05-24T01:13:51;94448.06;;;22.77;34.69
43217;BME280;60511;42.686;23.300;2023-05-24T01:16:02;94527.81;;;23.26;34.51
43217;BME280;60511;42.686;23.300;2023-05-24T01:18:12;94532.13;;;23.31;35.06
43217;BME280;60511;42.686;23.300;2023-05-24T01:20:16;94515.56;;;23.13;34.75
43217;BME280;60511;42.686;23.300;2023-05-24T01:24:43;94537.84;;;23.25;35.02
43217;BME280;60511;42.686;23.300;2023-05-24T01:29:02;94433.25;;;22.52;34.62
43217;BME280;60511;42.686;23.300;2023-05-24T01:31:04;94509.59;;;23.03;35.44
43217;BME280;60511;42.686;23.300;2023-05-24T01:33:05;94493.81;;;22.90;35.27
43217;BME280;60511;42.686;23.300;2023-05-24T01:35:06;94503.66;;;22.98;35.10
43217;BME280;60511;42.686;23.300;2023-05-24T01:37:06;94538.59;;;23.26;34.73
43217;BME280;60511;42.686;23.300;2023-05-24T01:39:07;94524.03;;;23.11;35.19
43217;BME280;60511;42.686;23.300;2023-05-24T01:43:50;94502.53;;;22.99;35.43
43217;BME280;60511;42.686;23.300;2023-05-24T01:45:58;94530.72;;;23.17;35.32
43217;BME280;60511;42.686;23.300;2023-05-24T01:48:15;94505.66;;;23.01;35.50
43217;BME280;60511;42.686;23.300;2023-05-24T01:50:25;94530.72;;;23.17;36.24
43217;BME280;60511;42.686;23.300;2023-05-24T01:52:30;94533.13;;;23.22;36.07
43217;BME280;60511;42.686;23.300;2023-05-24T01:54:36;94512.16;;;23.00;35.25
43217;BME280;60511;42.686;23.300;2023-05-24T01:56:38;94503.06;;;22.89;36.04
43217;BME280;60511;42.686;23.300;2023-05-24T01:58:40;94510.38;;;23.04;35.58
43217;BME280;60511;42.686;23.300;2023-05-24T02:00:43;94448.19;;;22.65;34.80
43217;BME280;60511;42.686;23.300;2023-05-24T02:02:44;94524.47;;;23.13;35.67
43217;BME280;60511;42.686;23.300;2023-05-24T02:04:45;94496.88;;;23.04;35.44
43217;BME280;60511;42.686;23.300;2023-05-24T02:06:45;94408.38;;;22.42;35.83
43217;BME280;60511;42.686;23.300;2023-05-24T02:08:46;94489.28;;;22.94;35.51
43217;BME280;60511;42.686;23.300;2023-05-24T02:10:46;94488.50;;;22.93;35.65
43217;BME280;60511;42.686;23.300;2023-05-24T02:12:46;94498.38;;;23.01;35.31
43217;BME280;60511;42.686;23.300;2023-05-24T02:14:47;94471.91;;;22.91;35.55
43217;BME280;60511;42.686;23.300;2023-05-24T02:16:50;94520.34;;;23.19;34.84
43217;BME280;60511;42.686;23.300;2023-05-24T02:18:50;94355.34;;;22.15;35.10
43217;BME280;60511;42.686;23.300;2023-05-24T02:20:50;94486.75;;;23.01;35.15
43217;BME280;60511;42.686;23.300;2023-05-24T02:22:51;94494.06;;;23.00;35.39
43217;BME280;60511;42.686;23.300;2023-05-24T02:24:52;94448.78;;;22.74;35.73
43217;BME280;60511;42.686;23.300;2023-05-24T02:26:52;94495.44;;;23.10;35.49
43217;BME280;60511;42.686;23.300;2023-05-24T02:28:55;94512.94;;;23.16;35.73
43217;BME280;60511;42.686;23.300;2023-05-24T02:30:56;94498.06;;;23.06;35.44
43217;BME280;60511;42.686;23.300;2023-05-24T02:32:56;94486.25;;;22.95;35.35
43217;BME280;60511;42.686;23.300;2023-05-24T02:34:57;94391.34;;;22.38;34.87
43217;BME280;60511;42.686;23.300;2023-05-24T02:36:58;94518.34;;;23.16;35.56
43217;BME280;60511;42.686;23.300;2023-05-24T02:38:58;94330.31;;;21.98;35.16
43217;BME280;60511;42.686;23.300;2023-05-24T02:40:59;94503.13;;;23.08;35.25
43217;BME280;60511;42.686;23.300;2023-05-24T02:42:59;94378.41;;;22.28;34.99
43217;BME280;60511;42.686;23.300;2023-05-24T02:45:00;94499.41;;;22.97;35.26
43217;BME280;60511;42.686;23.300;2023-05-24T02:47:00;94522.97;;;23.16;35.08
43217;BME280;60511;42.686;23.300;2023-05-24T02:49:01;94507.56;;;23.00;34.98
43217;BME280;60511;42.686;23.300;2023-05-24T02:51:01;94490.88;;;22.95;34.92
43217;BME280;60511;42.686;23.300;2023-05-24T02:53:02;94514.00;;;23.12;35.14
43217;BME280;60511;42.686;23.300;2023-05-24T02:55:03;94498.97;;;22.95;35.24
43217;BME280;60511;42.686;23.300;2023-05-24T02:57:03;94516.63;;;23.08;34.66
43217;BME280;60511;42.686;23.300;2023-05-24T02:59:05;94525.56;;;23.12;35.75
43217;BME280;60511;42.686;23.300;2023-05-24T03:01:06;94491.56;;;22.92;35.28
43217;BME280;60511;42.686;23.300;2023-05-24T03:03:07;94526.34;;;23.13;34.78
43217;BME280;60511;42.686;23.300;2023-05-24T03:05:08;94481.94;;;22.75;35.24
43217;BME280;60511;42.686;23.300;2023-05-24T03:07:08;94500.63;;;22.83;35.20
43217;BME280;60511;42.686;23.300;2023-05-24T03:09:10;94490.81;;;22.75;35.09
43217;BME280;60511;42.686;23.300;2023-05-24T03:11:10;94530.84;;;23.05;35.06
43217;BME280;60511;42.686;23.300;2023-05-24T03:13:10;94510.03;;;22.90;35.60
43217;BME280;60511;42.686;23.300;2023-05-24T03:15:11;94535.16;;;23.10;36.01
43217;BME280;60511;42.686;23.300;2023-05-24T03:17:11;94521.00;;;22.97;35.65
43217;BME280;60511;42.686;23.300;2023-05-24T03:19:12;94535.16;;;23.10;35.90
43217;BME280;60511;42.686;23.300;2023-05-24T03:21:12;94520.13;;;22.93;35.17
43217;BME280;60511;42.686;23.300;2023-05-24T03:23:12;94474.03;;;22.66;35.16
43217;BME280;60511;42.686;23.300;2023-05-24T03:25:14;94517.44;;;22.93;35.18
43217;BME280;60511;42.686;23.300;2023-05-24T03:27:14;94535.00;;;23.02;35.42
43217;BME280;60511;42.686;23.300;2023-05-24T03:29:15;94502.03;;;22.77;35.28
43217;BME280;60511;42.686;23.300;2023-05-24T03:31:15;94507.88;;;22.79;35.23
43217;BME280;60511;42.686;23.300;2023-05-24T03:33:16;94453.47;;;22.42;35.59
43217;BME280;60511;42.686;23.300;2023-05-24T03:35:17;94538.38;;;22.99;35.21
43217;BME280;60511;42.686;23.300;2023-05-24T03:37:17;94554.84;;;23.10;36.35
43217;BME280;60511;42.686;23.300;2023-05-24T03:39:18;94543.69;;;22.96;36.67
43217;BME280;60511;42.686;23.300;2023-05-24T03:41:18;94550.94;;;22.92;36.60
43217;BME280;60511;42.686;23.300;2023-05-24T03:43:19;94531.63;;;22.90;36.00
43217;BME280;60511;42.686;23.300;2023-05-24T03:45:21;94552.00;;;23.03;36.06
43217;BME280;60511;42.686;23.300;2023-05-24T03:47:21;94542.16;;;22.95;35.99
43217;BME280;60511;42.686;23.300;2023-05-24T03:49:22;94551.28;;;23.06;35.94
43217;BME280;60511;42.686;23.300;2023-05-24T03:51:22;94553.22;;;23.05;35.86
43217;BME280;60511;42.686;23.300;2023-05-24T03:53:28;94550.16;;;23.07;35.45
43217;BME280;60511;42.686;23.300;2023-05-24T03:55:28;94551.28;;;23.06;36.00
43217;BME280;60511;42.686;23.300;2023-05-24T03:57:29;94551.72;;;23.08;36.05
43217;BME280;60511;42.686;23.300;2023-05-24T03:59:29;94537.97;;;22.97;36.17
43217;BME280;60511;42.686;23.300;2023-05-24T04:01:30;94542.16;;;22.95;36.98
43217;BME280;60511;42.686;23.300;2023-05-24T04:03:30;94378.16;;;21.85;36.47
43217;BME280;60511;42.686;23.300;2023-05-24T04:05:33;94565.13;;;23.04;36.20
43217;BME280;60511;42.686;23.300;2023-05-24T04:07:33;94555.13;;;23.05;35.57
43217;BME280;60511;42.686;23.300;2023-05-24T04:09:36;94555.91;;;23.05;35.28
43217;BME280;60511;42.686;23.300;2023-05-24T04:11:36;94559.81;;;23.08;35.48
43217;BME280;60511;42.686;23.300;2023-05-24T04:13:37;94555.19;;;23.09;35.08
43217;BME280;60511;42.686;23.300;2023-05-24T04:15:37;94559.38;;;23.06;36.26
43217;BME280;60511;42.686;23.300;2023-05-24T04:17:38;94538.59;;;22.91;36.45
43217;BME280;60511;42.686;23.300;2023-05-24T04:19:38;94558.25;;;23.07;36.15
43217;BME280;60511;42.686;23.300;2023-05-24T04:21:39;94564.09;;;23.09;36.26
43217;BME280;60511;42.686;23.300;2023-05-24T04:23:39;94553.81;;;22.99;36.08
43217;BME280;60511;42.686;23.300;2023-05-24T04:25:40;94529.63;;;22.86;36.59
43217;BME280;60511;42.686;23.300;2023-05-24T04:27:42;94539.44;;;22.95;36.45
43217;BME280;60511;42.686;23.300;2023-05-24T04:29:44;94562.16;;;23.10;35.77
43217;BME280;60511;42.686;23.300;2023-05-24T04:31:50;94546.13;;;23.01;36.25
43217;BME280;60511;42.686;23.300;2023-05-24T04:33:50;94568.34;;;23.10;35.99
43217;BME280;60511;42.686;23.300;2023-05-24T04:35:51;94474.50;;;22.52;35.69
43217;BME280;60511;42.686;23.300;2023-05-24T04:37:52;94567.66;;;23.13;35.19
43217;BME280;60511;42.686;23.300;2023-05-24T04:39:52;94560.34;;;23.14;35.19
43217;BME280;60511;42.686;23.300;2023-05-24T04:41:53;94579.66;;;23.16;35.47
43217;BME280;60511;42.686;23.300;2023-05-24T04:43:55;94562.00;;;23.02;35.40
43217;BME280;60511;42.686;23.300;2023-05-24T04:45:56;94534.06;;;22.79;35.34
43217;BME280;60511;42.686;23.300;2023-05-24T04:47:56;94587.31;;;23.14;35.47
43217;BME280;60511;42.686;23.300;2023-05-24T04:49:56;94551.78;;;22.96;36.49
43217;BME280;60511;42.686;23.300;2023-05-24T04:51:57;94577.75;;;23.16;36.16
43217;BME280;60511;42.686;23.300;2023-05-24T04:53:57;94552.13;;;22.94;35.79
43217;BME280;60511;42.686;23.300;2023-05-24T04:55:58;94558.53;;;23.02;35.63
43217;BME280;60511;42.686;23.300;2023-05-24T04:57:58;94588.19;;;23.18;35.41
43217;BME280;60511;42.686;23.300;2023-05-24T04:59:58;94590.53;;;23.19;35.61
43217;BME280;60511;42.686;23.300;2023-05-24T05:01:59;94592.44;;;23.19;35.39
43217;BME280;60511;42.686;23.300;2023-05-24T05:04:01;94575.31;;;23.11;35.99
43217;BME280;60511;42.686;23.300;2023-05-24T05:06:03;94592.53;;;23.22;35.83
43217;BME280;60511;42.686;23.300;2023-05-24T05:08:04;94582.88;;;23.21;35.46
43217;BME280;60511;42.686;23.300;2023-05-24T05:10:06;94559.28;;;23.02;35.27
43217;BME280;60511;42.686;23.300;2023-05-24T05:12:07;94566.63;;;23.02;35.63
43217;BME280;60511;42.686;23.300;2023-05-24T05:14:07;94575.31;;;23.11;35.27
43217;BME280;60511;42.686;23.300;2023-05-24T05:16:11;94513.88;;;22.73;35.67
43217;BME280;60511;42.686;23.300;2023-05-24T05:18:12;94565.50;;;23.03;35.51
43217;BME280;60511;42.686;23.300;2023-05-24T05:20:12;94473.09;;;22.42;35.77
43217;BME280;60511;42.686;23.300;2023-05-24T05:22:13;94487.13;;;22.48;35.74
43217;BME280;60511;42.686;23.300;2023-05-24T05:24:14;94589.69;;;23.15;35.63
43217;BME280;60511;42.686;23.300;2023-05-24T05:26:14;94577.50;;;23.05;35.81
43217;BME280;60511;42.686;23.300;2023-05-24T05:28:15;94606.91;;;23.26;36.18
43217;BME280;60511;42.686;23.300;2023-05-24T05:30:16;94494.94;;;22.53;36.40
43217;BME280;60511;42.686;23.300;2023-05-24T05:32:16;94522.50;;;22.78;36.05
43217;BME280;60511;42.686;23.300;2023-05-24T05:34:17;94598.53;;;23.32;35.66
43217;BME280;60511;42.686;23.300;2023-05-24T05:36:18;94603.13;;;23.31;35.81
43217;BME280;60511;42.686;23.300;2023-05-24T05:38:19;94493.97;;;22.61;35.92
43217;BME280;60511;42.686;23.300;2023-05-24T05:40:19;94600.00;;;23.29;35.67
43217;BME280;60511;42.686;23.300;2023-05-24T05:42:20;94562.34;;;23.01;35.76
43217;BME280;60511;42.686;23.300;2023-05-24T05:44:20;94583.41;;;23.11;35.62
43217;BME280;60511;42.686;23.300;2023-05-24T05:46:20;94600.44;;;23.31;36.36
43217;BME280;60511;42.686;23.300;2023-05-24T05:48:21;94503.09;;;22.57;36.01
43217;BME280;60511;42.686;23.300;2023-05-24T05:50:22;94565.13;;;23.04;35.57
43217;BME280;60511;42.686;23.300;2023-05-24T05:52:22;94562.00;;;23.02;35.94
43217;BME280;60511;42.686;23.300;2023-05-24T05:54:22;94563.28;;;23.09;36.00
43217;BME280;60511;42.686;23.300;2023-05-24T05:56:25;94583.66;;;23.22;35.81
43217;BME280;60511;42.686;23.300;2023-05-24T05:58:26;94602.09;;;23.36;36.23
43217;BME280;60511;42.686;23.300;2023-05-24T06:00:27;94614.19;;;23.42;36.12
43217;BME280;60511;42.686;23.300;2023-05-24T06:02:27;94607.97;;;23.41;35.89
43217;BME280;60511;42.686;23.300;2023-05-24T06:04:28;94607.97;;;23.41;35.50
43217;BME280;60511;42.686;23.300;2023-05-24T06:06:28;94570.69;;;23.12;35.37
43217;BME280;60511;42.686;23.300;2023-05-24T06:08:28;94564.88;;;23.10;35.54
43217;BME280;60511;42.686;23.300;2023-05-24T06:10:35;94543.69;;;22.96;35.80
43217;BME280;60511;42.686;23.300;2023-05-24T06:12:35;94619.66;;;23.45;35.54
43217;BME280;60511;42.686;23.300;2023-05-24T06:14:37;94582.72;;;23.14;35.57
43217;BME280;60511;42.686;23.300;2023-05-24T06:16:37;94617.31;;;23.44;35.57
43217;BME280;60511;42.686;23.300;2023-05-24T06:18:43;94465.78;;;22.43;35.79
43217;BME280;60511;42.686;23.300;2023-05-24T06:20:44;94616.94;;;23.45;35.70
43217;BME280;60511;42.686;23.300;2023-05-24T06:22:44;94604.78;;;23.36;35.74
43217;BME280;60511;42.686;23.300;2023-05-24T06:24:45;94618.19;;;23.48;35.80
43217;BME280;60511;42.686;23.300;2023-05-24T06:26:46;94606.66;;;23.51;35.49
43217;BME280;60511;42.686;23.300;2023-05-24T06:28:47;94552.91;;;23.11;35.71
43217;BME280;60511;42.686;23.300;2023-05-24T06:30:47;94543.69;;;23.12;35.74
43217;BME280;60511;42.686;23.300;2023-05-24T06:32:48;94546.75;;;23.10;35.38
43217;BME280;60511;42.686;23.300;2023-05-24T06:34:49;94583.25;;;23.39;35.54
43217;BME280;60511;42.686;23.300;2023-05-24T06:36:49;94577.34;;;23.34;35.61
43217;BME280;60511;42.686;23.300;2023-05-24T06:38:51;94561.53;;;23.16;35.84
43217;BME280;60511;42.686;23.300;2023-05-24T06:40:52;94610.66;;;23.57;35.78
43217;BME280;60511;42.686;23.300;2023-05-24T06:42:53;94579.78;;;23.39;35.87
43217;BME280;60511;42.686;23.300;2023-05-24T06:44:54;94576.13;;;23.31;35.70
43217;BME280;60511;42.686;23.300;2023-05-24T06:46:55;94569.94;;;23.31;35.87
43217;BME280;60511;42.686;23.300;2023-05-24T06:48:56;94601.25;;;23.51;35.93
43217;BME280;60511;42.686;23.300;2023-05-24T06:50:56;94586.63;;;23.52;35.92
43217;BME280;60511;42.686;23.300;2023-05-24T06:52:56;94603.81;;;23.63;36.08
43217;BME280;60511;42.686;23.300;2023-05-24T06:54:57;94607.34;;;23.64;35.64
43217;BME280;60511;42.686;23.300;2023-05-24T06:56:57;94466.00;;;22.70;35.95
43217;BME280;60511;42.686;23.300;2023-05-24T06:58:58;94556.19;;;23.36;35.92
43217;BME280;60511;42.686;23.300;2023-05-24T07:00:58;94602.41;;;23.70;35.70
43217;BME280;60511;42.686;23.300;2023-05-24T07:02:59;94573.88;;;23.53;35.71
43217;BME280;60511;42.686;23.300;2023-05-24T07:04:59;94600.94;;;23.72;35.85
43217;BME280;60511;42.686;23.300;2023-05-24T07:07:00;94607.47;;;23.71;35.64
43217;BME280;60511;42.686;23.300;2023-05-24T07:09:02;94595.03;;;23.66;35.50
43217;BME280;60511;42.686;23.300;2023-05-24T07:11:03;94481.47;;;22.89;35.48
43217;BME280;60511;42.686;23.300;2023-05-24T07:13:04;94608.09;;;23.80;35.52
43217;BME280;60511;42.686;23.300;2023-05-24T07:15:05;94590.19;;;23.76;35.49
43217;BME280;60511;42.686;23.300;2023-05-24T07:17:06;94601.59;;;23.85;35.47
43217;BME280;60511;42.686;23.300;2023-05-24T07:19:07;94603.22;;;23.90;35.33
43217;BME280;60511;42.686;23.300;2023-05-24T07:21:07;94587.16;;;23.77;35.12
43217;BME280;60511;42.686;23.300;2023-05-24T07:23:07;94577.94;;;23.78;35.25
43217;BME280;60511;42.686;23.300;2023-05-24T07:25:08;94518.38;;;23.36;35.13
43217;BME280;60511;42.686;23.300;2023-05-24T07:27:09;94431.03;;;22.73;35.24
43217;BME280;60511;42.686;23.300;2023-05-24T07:29:09;94615.84;;;24.01;35.02
43217;BME280;60511;42.686;23.300;2023-05-24T07:31:10;94593.28;;;23.94;35.32
43217;BME280;60511;42.686;23.300;2023-05-24T07:33:10;94506.41;;;23.37;35.13
43217;BME280;60511;42.686;23.300;2023-05-24T07:35:11;94610.94;;;24.07;35.12
43217;BME280;60511;42.686;23.300;2023-05-24T07:37:13;94614.47;;;24.11;35.10
43217;BME280;60511;42.686;23.300;2023-05-24T07:39:14;94499.47;;;23.36;35.02
43217;BME280;60511;42.686;23.300;2023-05-24T07:41:15;94592.63;;;24.00;34.97
43217;BME280;60511;42.686;23.300;2023-05-24T07:43:16;94613.81;;;24.18;35.06
43217;BME280;60511;42.686;23.300;2023-05-24T07:45:18;94603.16;;;24.05;34.83
43217;BME280;60511;42.686;23.300;2023-05-24T07:47:19;94518.72;;;23.54;34.93
43217;BME280;60511;42.686;23.300;2023-05-24T07:49:20;94566.47;;;23.85;35.30
43217;BME280;60511;42.686;23.300;2023-05-24T07:51:21;94613.06;;;24.17;34.99
43217;BME280;60511;42.686;23.300;2023-05-24T07:53:21;94616.22;;;24.23;35.00
43217;BME280;60511;42.686;23.300;2023-05-24T07:55:22;94564.03;;;23.99;34.93
43217;BME280;60511;42.686;23.300;2023-05-24T07:57:22;94607.84;;;24.28;34.88
43217;BME280;60511;42.686;23.300;2023-05-24T07:59:23;94587.78;;;24.10;35.09
43217;BME280;60511;42.686;23.300;2023-05-24T08:01:24;94589.06;;;23.96;35.02
43217;BME280;60511;42.686;23.300;2023-05-24T08:03:24;94604.56;;;24.19;35.26
43217;BME280;60511;42.686;23.300;2023-05-24T08:05:26;94574.97;;;24.06;35.14
43217;BME280;60511;42.686;23.300;2023-05-24T08:07:27;94602.44;;;24.28;35.03
43217;BME280;60511;42.686;23.300;2023-05-24T08:09:27;94560.13;;;23.97;35.12
43217;BME280;60511;42.686;23.300;2023-05-24T08:11:35;94605.47;;;24.26;34.97
43217;BME280;60511;42.686;23.300;2023-05-24T08:13:36;94602.78;;;24.26;35.15
43217;BME280;60511;42.686;23.300;2023-05-24T08:15:37;94566.84;;;24.06;34.90
43217;BME280;60511;42.686;23.300;2023-05-24T08:17:37;94597.78;;;24.29;35.03
43217;BME280;60511;42.686;23.300;2023-05-24T08:19:38;94599.38;;;24.30;35.08
43217;BME280;60511;42.686;23.300;2023-05-24T08:21:38;94501.22;;;23.67;34.94
43217;BME280;60511;42.686;23.300;2023-05-24T08:23:42;94599.38;;;24.30;35.07
43217;BME280;60511;42.686;23.300;2023-05-24T08:25:42;94594.31;;;24.28;35.08
43217;BME280;60511;42.686;23.300;2023-05-24T08:27:43;94408.72;;;23.12;34.74
43217;BME280;60511;42.686;23.300;2023-05-24T08:29:43;94600.50;;;24.29;34.52
43217;BME280;60511;42.686;23.300;2023-05-24T08:31:43;94595.84;;;24.29;34.74
43217;BME280;60511;42.686;23.300;2023-05-24T08:33:44;94598.56;;;24.29;34.58
43217;BME280;60511;42.686;23.300;2023-05-24T08:35:44;94597.09;;;24.32;34.42
43217;BME280;60511;42.686;23.300;2023-05-24T08:37:45;94568.94;;;24.13;34.45
43217;BME280;60511;42.686;23.300;2023-05-24T08:39:47;94594.72;;;24.30;34.82
43217;BME280;60511;42.686;23.300;2023-05-24T08:41:47;94578.66;;;24.18;34.74
43217;BME280;60511;42.686;23.300;2023-05-24T08:43:48;94591.53;;;24.24;35.03
43217;BME280;60511;42.686;23.300;2023-05-24T08:45:50;94507.84;;;23.70;34.88
43217;BME280;60511;42.686;23.300;2023-05-24T08:47:51;94589.19;;;24.23;34.96
43217;BME280;60511;42.686;23.300;2023-05-24T08:49:54;94503.22;;;23.70;35.28
43217;BME280;60511;42.686;23.300;2023-05-24T08:51:54;94531.59;;;23.99;35.04
43217;BME280;60511;42.686;23.300;2023-05-24T08:53:59;94592.44;;;24.32;35.23
43217;BME280;60511;42.686;23.300;2023-05-24T08:56:00;94552.63;;;24.10;35.42
43217;BME280;60511;42.686;23.300;2023-05-24T08:58:02;94562.38;;;24.14;35.61
43217;BME280;60511;42.686;23.300;2023-05-24T09:00:08;94567.13;;;24.21;35.22
43217;BME280;60511;42.686;23.300;2023-05-24T09:02:13;94565.56;;;24.20;35.08
43217;BME280;60511;42.686;23.300;2023-05-24T09:04:15;94556.25;;;24.17;35.28
43217;BME280;60511;42.686;23.300;2023-05-24T09:06:16;94585.88;;;24.33;35.55
43217;BME280;60511;42.686;23.300;2023-05-24T09:08:18;94589.81;;;24.36;35.38
43217;BME280;60511;42.686;23.300;2023-05-24T09:10:19;94546.47;;;24.09;35.63
43217;BME280;60511;42.686;23.300;2023-05-24T09:12:26;94590.94;;;24.35;35.47
43217;BME280;60511;42.686;23.300;2023-05-24T09:14:29;94595.59;;;24.34;35.42
43217;BME280;60511;42.686;23.300;2023-05-24T09:16:30;94499.03;;;23.73;35.56
43217;BME280;60511;42.686;23.300;2023-05-24T09:18:30;94578.09;;;24.28;35.55
43217;BME280;60511;42.686;23.300;2023-05-24T09:20:31;94577.78;;;24.33;34.77
43217;BME280;60511;42.686;23.300;2023-05-24T09:22:31;94586.81;;;24.41;35.24
43217;BME280;60511;42.686;23.300;2023-05-24T09:24:41;94581.03;;;24.42;34.73
43217;BME280;60511;42.686;23.300;2023-05-24T09:26:41;94581.03;;;24.42;35.28
43217;BME280;60511;42.686;23.300;2023-05-24T09:28:42;94505.16;;;23.89;35.47
43217;BME280;60511;42.686;23.300;2023-05-24T09:30:44;94581.38;;;24.41;35.30
43217;BME280;60511;42.686;23.300;2023-05-24T09:32:58;94577.59;;;24.45;34.55
43217;BME280;60511;42.686;23.300;2023-05-24T09:35:00;94579.09;;;24.43;35.36
43217;BME280;60511;42.686;23.300;2023-05-24T09:37:01;94574.84;;;24.42;35.53
43217;BME280;60511;42.686;23.300;2023-05-24T09:39:05;94447.34;;;23.55;35.71
43217;BME280;60511;42.686;23.300;2023-05-24T09:41:09;94555.59;;;24.24;35.73
43217;BME280;60511;42.686;23.300;2023-05-24T09:43:10;94576.75;;;24.41;35.24
43217;BME280;60511;42.686;23.300;2023-05-24T09:45:11;94583.00;;;24.45;35.24
43217;BME280;60511;42.686;23.300;2023-05-24T09:47:13;94500.25;;;23.95;35.40
43217;BME280;60511;42.686;23.300;2023-05-24T09:49:14;94580.72;;;24.47;35.28
43217;BME280;60511;42.686;23.300;2023-05-24T09:51:14;94536.66;;;24.24;34.50
43217;BME280;60511;42.686;23.300;2023-05-24T09:53:20;94561.63;;;24.37;35.32
43217;BME280;60511;42.686;23.300;2023-05-24T09:55:21;94577.25;;;24.47;35.32
43217;BME280;60511;42.686;23.300;2023-05-24T09:57:22;94571.16;;;24.50;35.57
43217;BME280;60511;42.686;23.300;2023-05-24T09:59:23;94561.25;;;24.38;35.46
43217;BME280;60511;42.686;23.300;2023-05-24T10:01:23;94481.84;;;24.04;35.54
43217;BME280;60511;42.686;23.300;2023-05-24T10:03:25;94566.22;;;24.56;35.23
43217;BME280;60511;42.686;23.300;2023-05-24T10:05:27;94566.63;;;24.58;34.95
43217;BME280;60511;42.686;23.300;2023-05-24T10:07:28;94546.22;;;24.41;35.38
43217;BME280;60511;42.686;23.300;2023-05-24T10:09:29;94565.28;;;24.48;35.59
43217;BME280;60511;42.686;23.300;2023-05-24T10:11:34;94539.97;;;24.37;35.27
43217;BME280;60511;42.686;23.300;2023-05-24T10:13:36;94530.66;;;24.34;35.26
43217;BME280;60511;42.686;23.300;2023-05-24T10:15:37;94561.53;;;24.53;35.41
43217;BME280;60511;42.686;23.300;2023-05-24T10:17:37;94528.06;;;24.41;34.69
43217;BME280;60511;42.686;23.300;2023-05-24T10:19:38;94557.03;;;24.60;35.12
43217;BME280;60511;42.686;23.300;2023-05-24T10:21:41;94512.75;;;24.26;35.32
43217;BME280;60511;42.686;23.300;2023-05-24T10:23:43;94495.69;;;24.22;35.21
43217;BME280;60511;42.686;23.300;2023-05-24T10:25:49;94523.91;;;24.47;34.61
43217;BME280;60511;42.686;23.300;2023-05-24T10:28:02;94551.28;;;24.65;34.93
43217;BME280;60511;42.686;23.300;2023-05-24T10:30:33;94550.53;;;24.65;34.53
43217;BME280;60511;42.686;23.300;2023-05-24T10:32:38;94506.84;;;24.43;34.36
43217;BME280;60511;42.686;23.300;2023-05-24T10:34:39;94500.66;;;24.43;32.88
43217;BME280;60511;42.686;23.300;2023-05-24T10:36:40;94525.41;;;24.64;33.70
43217;BME280;60511;42.686;23.300;2023-05-24T10:38:45;94543.72;;;24.75;34.40
43217;BME280;60511;42.686;23.300;2023-05-24T10:40:46;94540.94;;;24.71;34.57
43217;BME280;60511;42.686;23.300;2023-05-24T10:42:47;94529.44;;;24.78;32.89
43217;BME280;60511;42.686;23.300;2023-05-24T10:44:48;94493.47;;;24.51;34.24
43217;BME280;60511;42.686;23.300;2023-05-24T10:49:12;94489.59;;;24.52;34.74